sensor_id;sensor_type;location;lat;lon;timestamp;temperature;humidity
16263;DHT22;8239;48.594;8.598;2024-03-08T00:01:37;0.40;99.90
16263;DHT22;8239;48.594;8.598;2024-03-08T00:04:06;0.40;99.90
16263;DHT22;8239;48.594;8.598;2024-03-08T00:06:34;0.40;99.90
16263;DHT22;8239;48.594;8.598;2024-03-08T00:09:01;0.40;99.90
16263;DHT22;8239;48.594;8.598;2024-03-08T00:11:28;0.30;99.90
16263;DHT22;8239;48.594;8.598;2024-03-08T00:13:56;0.30;99.90
16263;DHT22;8239;48.594;8.598;2024-03-08T00:16:23;0.30;99.90
16263;DHT22;8239;48.594;8.598;2024-03-08T00:18:50;0.20;99.90
16263;DHT22;8239;48.594;8.598;2024-03-08T00:21:19;0.10;99.90
16263;DHT22;8239;48.594;8.598;2024-03-08T00:23:46;0.00;99.90
16263;DHT22;8239;48.594;8.598;2024-03-08T00:26:13;0.00;99.90
16263;DHT22;8239;48.594;8.598;2024-03-08T00:28:40;-0.10;99.90
16263;DHT22;8239;48.594;8.598;2024-03-08T00:31:07;-0.20;99.90
16263;DHT22;8239;48.594;8.598;2024-03-08T00:33:34;-0.30;99.90
16263;DHT22;8239;48.594;8.598;2024-03-08T00:36:02;-0.20;99.90
16263;DHT22;8239;48.594;8.598;2024-03-08T00:38:31;-0.30;99.90
16263;DHT22;8239;48.594;8.598;2024-03-08T00:40:59;-0.30;99.90
16263;DHT22;8239;48.594;8.598;2024-03-08T00:43:27;-0.30;99.90
16263;DHT22;8239;48.594;8.598;2024-03-08T00:45:55;-0.40;99.90
16263;DHT22;8239;48.594;8.598;2024-03-08T00:48:23;-0.50;99.90
16263;DHT22;8239;48.594;8.598;2024-03-08T00:50:50;-0.50;99.90
16263;DHT22;8239;48.594;8.598;2024-03-08T00:53:17;-0.60;99.90
16263;DHT22;8239;48.594;8.598;2024-03-08T00:55:46;-0.60;99.90
16263;DHT22;8239;48.594;8.598;2024-03-08T00:58:13;-0.70;99.90
16263;DHT22;8239;48.594;8.598;2024-03-08T01:00:40;-0.80;99.90
16263;DHT22;8239;48.594;8.598;2024-03-08T01:03:07;-0.90;99.90
16263;DHT22;8239;48.594;8.598;2024-03-08T01:05:34;-0.90;99.90
16263;DHT22;8239;48.594;8.598;2024-03-08T01:08:01;-0.80;99.90
16263;DHT22;8239;48.594;8.598;2024-03-08T01:10:29;-1.00;99.90
16263;DHT22;8239;48.594;8.598;2024-03-08T01:12:57;-1.00;99.90
16263;DHT22;8239;48.594;8.598;2024-03-08T01:15:25;-1.10;99.90
16263;DHT22;8239;48.594;8.598;2024-03-08T01:17:52;-1.10;99.90
16263;DHT22;8239;48.594;8.598;2024-03-08T01:20:19;-1.20;99.90
16263;DHT22;8239;48.594;8.598;2024-03-08T01:22:46;-1.20;99.90
16263;DHT22;8239;48.594;8.598;2024-03-08T01:25:13;-1.20;99.90
16263;DHT22;8239;48.594;8.598;2024-03-08T01:27:40;-1.20;99.90
16263;DHT22;8239;48.594;8.598;2024-03-08T01:30:10;-1.30;99.90
16263;DHT22;8239;48.594;8.598;2024-03-08T01:32:38;-1.40;99.90
16263;DHT22;8239;48.594;8.598;2024-03-08T01:35:06;-1.40;99.90
16263;DHT22;8239;48.594;8.598;2024-03-08T01:37:35;-1.50;99.90
16263;DHT22;8239;48.594;8.598;2024-03-08T01:40:02;-1.50;99.90
16263;DHT22;8239;48.594;8.598;2024-03-08T01:42:29;-1.60;99.90
16263;DHT22;8239;48.594;8.598;2024-03-08T01:44:56;-1.60;99.90
16263;DHT22;8239;48.594;8.598;2024-03-08T01:47:25;-1.70;99.90
16263;DHT22;8239;48.594;8.598;2024-03-08T01:49:52;-1.60;99.90
16263;DHT22;8239;48.594;8.598;2024-03-08T01:52:20;-1.70;99.90
16263;DHT22;8239;48.594;8.598;2024-03-08T01:54:49;-1.70;99.90
16263;DHT22;8239;48.594;8.598;2024-03-08T01:57:16;-1.80;99.90
16263;DHT22;8239;48.594;8.598;2024-03-08T01:59:43;-1.80;99.90
16263;DHT22;8239;48.594;8.598;2024-03-08T02:02:11;-1.90;99.90
16263;DHT22;8239;48.594;8.598;2024-03-08T02:04:43;-2.00;99.90
16263;DHT22;8239;48.594;8.598;2024-03-08T02:07:10;-2.10;99.90
16263;DHT22;8239;48.594;8.598;2024-03-08T02:09:37;-2.10;99.90
16263;DHT22;8239;48.594;8.598;2024-03-08T02:12:05;-2.10;99.90
16263;DHT22;8239;48.594;8.598;2024-03-08T02:14:32;-2.10;99.90
16263;DHT22;8239;48.594;8.598;2024-03-08T02:17:00;-2.10;99.90
16263;DHT22;8239;48.594;8.598;2024-03-08T02:19:27;-2.10;99.90
16263;DHT22;8239;48.594;8.598;2024-03-08T02:21:56;-2.20;99.90
16263;DHT22;8239;48.594;8.598;2024-03-08T02:24:25;-2.30;99.90
16263;DHT22;8239;48.594;8.598;2024-03-08T02:26:52;-2.20;99.90
16263;DHT22;8239;48.594;8.598;2024-03-08T02:29:20;-2.30;99.90
16263;DHT22;8239;48.594;8.598;2024-03-08T02:31:47;-2.30;99.90
16263;DHT22;8239;48.594;8.598;2024-03-08T02:34:14;-2.40;99.90
16263;DHT22;8239;48.594;8.598;2024-03-08T02:36:41;-2.50;99.90
16263;DHT22;8239;48.594;8.598;2024-03-08T02:39:10;-2.50;99.90
16263;DHT22;8239;48.594;8.598;2024-03-08T02:41:37;-2.60;99.90
16263;DHT22;8239;48.594;8.598;2024-03-08T02:44:04;-2.60;99.90
16263;DHT22;8239;48.594;8.598;2024-03-08T02:46:32;-2.70;99.90
16263;DHT22;8239;48.594;8.598;2024-03-08T02:49:01;-2.70;99.90
16263;DHT22;8239;48.594;8.598;2024-03-08T02:51:29;-2.80;99.90
16263;DHT22;8239;48.594;8.598;2024-03-08T02:53:56;-2.80;99.90
16263;DHT22;8239;48.594;8.598;2024-03-08T02:56:25;-2.90;99.90
16263;DHT22;8239;48.594;8.598;2024-03-08T02:58:52;-2.90;99.90
16263;DHT22;8239;48.594;8.598;2024-03-08T03:01:19;-3.00;99.90
16263;DHT22;8239;48.594;8.598;2024-03-08T03:03:48;-3.00;99.90
16263;DHT22;8239;48.594;8.598;2024-03-08T03:06:15;-3.00;99.90
16263;DHT22;8239;48.594;8.598;2024-03-08T03:08:42;-2.90;99.90
16263;DHT22;8239;48.594;8.598;2024-03-08T03:11:11;-3.00;99.90
16263;DHT22;8239;48.594;8.598;2024-03-08T03:13:41;-3.00;99.90
16263;DHT22;8239;48.594;8.598;2024-03-08T03:16:22;-3.10;99.90
16263;DHT22;8239;48.594;8.598;2024-03-08T03:19:01;-3.10;99.90
16263;DHT22;8239;48.594;8.598;2024-03-08T03:21:31;-3.10;99.90
16263;DHT22;8239;48.594;8.598;2024-03-08T03:23:58;-3.10;99.90
16263;DHT22;8239;48.594;8.598;2024-03-08T03:26:26;-3.10;99.90
16263;DHT22;8239;48.594;8.598;2024-03-08T03:28:54;-3.10;99.90
16263;DHT22;8239;48.594;8.598;2024-03-08T03:31:23;-3.20;99.90
16263;DHT22;8239;48.594;8.598;2024-03-08T03:33:51;-3.20;99.90
16263;DHT22;8239;48.594;8.598;2024-03-08T03:36:19;-3.20;99.90
16263;DHT22;8239;48.594;8.598;2024-03-08T03:38:46;-3.20;99.90
16263;DHT22;8239;48.594;8.598;2024-03-08T03:41:14;-3.20;99.90
16263;DHT22;8239;48.594;8.598;2024-03-08T03:43:42;-3.30;99.90
16263;DHT22;8239;48.594;8.598;2024-03-08T03:46:10;-3.30;99.90
16263;DHT22;8239;48.594;8.598;2024-03-08T03:48:38;-3.30;99.90
16263;DHT22;8239;48.594;8.598;2024-03-08T03:51:05;-3.20;99.90
16263;DHT22;8239;48.594;8.598;2024-03-08T03:53:31;-3.20;99.90
16263;DHT22;8239;48.594;8.598;2024-03-08T03:55:58;-3.20;99.90
16263;DHT22;8239;48.594;8.598;2024-03-08T03:58:26;-3.30;99.90
16263;DHT22;8239;48.594;8.598;2024-03-08T04:00:53;-3.20;99.90
16263;DHT22;8239;48.594;8.598;2024-03-08T04:03:21;-3.30;99.90
16263;DHT22;8239;48.594;8.598;2024-03-08T04:05:48;-3.30;99.90
16263;DHT22;8239;48.594;8.598;2024-03-08T04:08:16;-3.20;99.90
16263;DHT22;8239;48.594;8.598;2024-03-08T04:10:43;-3.30;99.90
16263;DHT22;8239;48.594;8.598;2024-03-08T04:13:11;-3.40;99.90
16263;DHT22;8239;48.594;8.598;2024-03-08T04:15:38;-3.40;99.90
16263;DHT22;8239;48.594;8.598;2024-03-08T04:18:05;-3.50;99.90
16263;DHT22;8239;48.594;8.598;2024-03-08T04:20:33;-3.40;99.90
16263;DHT22;8239;48.594;8.598;2024-03-08T04:23:01;-3.50;99.90
16263;DHT22;8239;48.594;8.598;2024-03-08T04:25:29;-3.50;99.90
16263;DHT22;8239;48.594;8.598;2024-03-08T04:27:56;-3.50;99.90
16263;DHT22;8239;48.594;8.598;2024-03-08T04:30:23;-3.50;99.90
16263;DHT22;8239;48.594;8.598;2024-03-08T04:32:50;-3.50;99.90
16263;DHT22;8239;48.594;8.598;2024-03-08T04:35:18;-3.60;99.90
16263;DHT22;8239;48.594;8.598;2024-03-08T04:37:47;-3.70;99.90
16263;DHT22;8239;48.594;8.598;2024-03-08T04:40:14;-3.60;99.90
16263;DHT22;8239;48.594;8.598;2024-03-08T04:42:42;-3.70;99.90
16263;DHT22;8239;48.594;8.598;2024-03-08T04:45:09;-3.70;99.90
16263;DHT22;8239;48.594;8.598;2024-03-08T04:47:37;-3.70;99.90
16263;DHT22;8239;48.594;8.598;2024-03-08T04:50:05;-3.70;99.90
16263;DHT22;8239;48.594;8.598;2024-03-08T04:52:34;-3.70;99.90
16263;DHT22;8239;48.594;8.598;2024-03-08T04:55:03;-3.70;99.90
16263;DHT22;8239;48.594;8.598;2024-03-08T04:57:31;-3.70;99.90
16263;DHT22;8239;48.594;8.598;2024-03-08T04:59:58;-3.70;99.90
16263;DHT22;8239;48.594;8.598;2024-03-08T05:02:25;-3.70;99.90
16263;DHT22;8239;48.594;8.598;2024-03-08T05:04:52;-3.60;99.90
16263;DHT22;8239;48.594;8.598;2024-03-08T05:07:19;-3.50;99.90
16263;DHT22;8239;48.594;8.598;2024-03-08T05:09:46;-3.50;99.90
16263;DHT22;8239;48.594;8.598;2024-03-08T05:12:18;-3.40;99.90
16263;DHT22;8239;48.594;8.598;2024-03-08T05:14:45;-3.30;99.90
16263;DHT22;8239;48.594;8.598;2024-03-08T05:17:15;-3.20;99.90
16263;DHT22;8239;48.594;8.598;2024-03-08T05:19:42;-3.10;99.90
16263;DHT22;8239;48.594;8.598;2024-03-08T05:22:09;-2.90;99.90
16263;DHT22;8239;48.594;8.598;2024-03-08T05:24:36;-2.80;99.90
16263;DHT22;8239;48.594;8.598;2024-03-08T05:27:04;-2.60;99.90
16263;DHT22;8239;48.594;8.598;2024-03-08T05:29:33;-2.50;99.90
16263;DHT22;8239;48.594;8.598;2024-03-08T05:32:00;-2.40;99.90
16263;DHT22;8239;48.594;8.598;2024-03-08T05:34:28;-2.30;99.90
16263;DHT22;8239;48.594;8.598;2024-03-08T05:36:55;-2.00;99.90
16263;DHT22;8239;48.594;8.598;2024-03-08T05:39:23;-1.80;99.90
16263;DHT22;8239;48.594;8.598;2024-03-08T05:41:50;-1.30;99.90
16263;DHT22;8239;48.594;8.598;2024-03-08T05:44:16;-1.10;99.90
16263;DHT22;8239;48.594;8.598;2024-03-08T05:46:45;-1.10;99.90
16263;DHT22;8239;48.594;8.598;2024-03-08T05:49:13;-1.20;99.90
16263;DHT22;8239;48.594;8.598;2024-03-08T05:51:40;-1.20;99.90
16263;DHT22;8239;48.594;8.598;2024-03-08T05:54:09;-1.30;99.90
16263;DHT22;8239;48.594;8.598;2024-03-08T05:56:36;-1.30;99.90
16263;DHT22;8239;48.594;8.598;2024-03-08T05:59:03;-1.30;99.90
16263;DHT22;8239;48.594;8.598;2024-03-08T06:01:30;-1.40;99.90
16263;DHT22;8239;48.594;8.598;2024-03-08T06:03:59;-1.30;99.90
16263;DHT22;8239;48.594;8.598;2024-03-08T06:06:27;-1.40;99.90
16263;DHT22;8239;48.594;8.598;2024-03-08T06:08:54;-1.30;99.90
16263;DHT22;8239;48.594;8.598;2024-03-08T06:11:22;-1.30;99.90
16263;DHT22;8239;48.594;8.598;2024-03-08T06:13:49;-1.20;99.90
16263;DHT22;8239;48.594;8.598;2024-03-08T06:16:16;-1.20;99.90
16263;DHT22;8239;48.594;8.598;2024-03-08T06:18:43;-1.20;99.90
16263;DHT22;8239;48.594;8.598;2024-03-08T06:21:14;-1.10;99.90
16263;DHT22;8239;48.594;8.598;2024-03-08T06:23:41;-1.00;99.90
16263;DHT22;8239;48.594;8.598;2024-03-08T06:26:08;-0.90;99.90
16263;DHT22;8239;48.594;8.598;2024-03-08T06:28:35;-0.90;99.90
16263;DHT22;8239;48.594;8.598;2024-03-08T06:31:03;-0.80;99.90
16263;DHT22;8239;48.594;8.598;2024-03-08T06:33:30;-0.80;99.90
16263;DHT22;8239;48.594;8.598;2024-03-08T06:35:58;-0.80;99.90
16263;DHT22;8239;48.594;8.598;2024-03-08T06:38:26;-0.70;99.90
16263;DHT22;8239;48.594;8.598;2024-03-08T06:40:53;-0.60;99.90
16263;DHT22;8239;48.594;8.598;2024-03-08T06:43:21;-0.60;99.90
16263;DHT22;8239;48.594;8.598;2024-03-08T06:45:50;-0.60;99.90
16263;DHT22;8239;48.594;8.598;2024-03-08T06:48:18;-0.60;99.90
16263;DHT22;8239;48.594;8.598;2024-03-08T06:50:46;-0.50;99.90
16263;DHT22;8239;48.594;8.598;2024-03-08T06:53:13;-0.70;99.90
16263;DHT22;8239;48.594;8.598;2024-03-08T06:55:42;-0.60;99.90
16263;DHT22;8239;48.594;8.598;2024-03-08T06:58:10;-0.50;99.90
16263;DHT22;8239;48.594;8.598;2024-03-08T07:00:37;-0.50;99.90
16263;DHT22;8239;48.594;8.598;2024-03-08T07:03:07;-0.40;99.90
16263;DHT22;8239;48.594;8.598;2024-03-08T07:05:38;-0.40;99.90
16263;DHT22;8239;48.594;8.598;2024-03-08T07:08:06;-0.40;99.90
16263;DHT22;8239;48.594;8.598;2024-03-08T07:10:33;-0.50;99.90
16263;DHT22;8239;48.594;8.598;2024-03-08T07:13:02;-0.40;99.90
16263;DHT22;8239;48.594;8.598;2024-03-08T07:15:29;-0.30;99.90
16263;DHT22;8239;48.594;8.598;2024-03-08T07:17:56;-0.30;99.90
16263;DHT22;8239;48.594;8.598;2024-03-08T07:20:23;-0.30;99.90
16263;DHT22;8239;48.594;8.598;2024-03-08T07:22:50;0.00;99.90
16263;DHT22;8239;48.594;8.598;2024-03-08T07:25:18;0.00;99.90
16263;DHT22;8239;48.594;8.598;2024-03-08T07:27:50;0.00;99.90
16263;DHT22;8239;48.594;8.598;2024-03-08T07:30:19;0.10;99.90
16263;DHT22;8239;48.594;8.598;2024-03-08T07:33:04;0.30;99.90
16263;DHT22;8239;48.594;8.598;2024-03-08T07:35:32;0.50;99.90
16263;DHT22;8239;48.594;8.598;2024-03-08T07:38:03;0.40;99.90
16263;DHT22;8239;48.594;8.598;2024-03-08T07:40:31;0.40;99.90
16263;DHT22;8239;48.594;8.598;2024-03-08T07:42:58;0.50;99.90
16263;DHT22;8239;48.594;8.598;2024-03-08T07:45:27;0.60;99.90
16263;DHT22;8239;48.594;8.598;2024-03-08T07:47:54;0.60;99.90
16263;DHT22;8239;48.594;8.598;2024-03-08T07:50:22;0.70;99.90
16263;DHT22;8239;48.594;8.598;2024-03-08T07:52:49;0.80;99.90
16263;DHT22;8239;48.594;8.598;2024-03-08T07:55:16;0.80;99.90
16263;DHT22;8239;48.594;8.598;2024-03-08T07:57:44;1.00;99.90
16263;DHT22;8239;48.594;8.598;2024-03-08T08:00:14;1.10;99.90
16263;DHT22;8239;48.594;8.598;2024-03-08T08:02:45;1.20;99.90
16263;DHT22;8239;48.594;8.598;2024-03-08T08:05:15;1.30;99.90
16263;DHT22;8239;48.594;8.598;2024-03-08T08:07:44;1.30;99.90
16263;DHT22;8239;48.594;8.598;2024-03-08T08:10:12;1.30;99.90
16263;DHT22;8239;48.594;8.598;2024-03-08T08:12:44;1.30;99.90
16263;DHT22;8239;48.594;8.598;2024-03-08T08:15:12;1.30;99.90
16263;DHT22;8239;48.594;8.598;2024-03-08T08:17:40;1.20;99.90
16263;DHT22;8239;48.594;8.598;2024-03-08T08:20:10;1.20;99.90
16263;DHT22;8239;48.594;8.598;2024-03-08T08:22:38;1.10;99.90
16263;DHT22;8239;48.594;8.598;2024-03-08T08:25:06;1.20;99.90
16263;DHT22;8239;48.594;8.598;2024-03-08T08:27:33;1.20;99.90
16263;DHT22;8239;48.594;8.598;2024-03-08T08:30:02;1.20;99.90
16263;DHT22;8239;48.594;8.598;2024-03-08T08:32:33;1.30;99.90
16263;DHT22;8239;48.594;8.598;2024-03-08T08:35:00;1.50;99.90
16263;DHT22;8239;48.594;8.598;2024-03-08T08:37:31;1.50;99.90
16263;DHT22;8239;48.594;8.598;2024-03-08T08:39:59;1.70;99.90
16263;DHT22;8239;48.594;8.598;2024-03-08T08:42:31;1.80;99.90
16263;DHT22;8239;48.594;8.598;2024-03-08T08:44:58;1.80;99.90
16263;DHT22;8239;48.594;8.598;2024-03-08T08:47:25;1.90;99.90
16263;DHT22;8239;48.594;8.598;2024-03-08T08:49:52;2.00;99.90
16263;DHT22;8239;48.594;8.598;2024-03-08T08:52:19;2.10;99.90
16263;DHT22;8239;48.594;8.598;2024-03-08T08:54:48;2.20;99.90
16263;DHT22;8239;48.594;8.598;2024-03-08T08:57:15;2.00;99.90
16263;DHT22;8239;48.594;8.598;2024-03-08T08:59:43;2.10;99.90
16263;DHT22;8239;48.594;8.598;2024-03-08T09:02:11;2.10;99.90
16263;DHT22;8239;48.594;8.598;2024-03-08T09:04:38;2.10;99.90
16263;DHT22;8239;48.594;8.598;2024-03-08T09:07:05;2.30;99.90
16263;DHT22;8239;48.594;8.598;2024-03-08T09:09:33;2.30;99.90
16263;DHT22;8239;48.594;8.598;2024-03-08T09:12:01;2.40;99.90
16263;DHT22;8239;48.594;8.598;2024-03-08T09:14:28;2.40;99.90
16263;DHT22;8239;48.594;8.598;2024-03-08T09:16:55;2.30;99.90
16263;DHT22;8239;48.594;8.598;2024-03-08T09:19:23;2.20;99.90
16263;DHT22;8239;48.594;8.598;2024-03-08T09:21:51;2.20;99.90
16263;DHT22;8239;48.594;8.598;2024-03-08T09:24:18;2.10;99.90
16263;DHT22;8239;48.594;8.598;2024-03-08T09:26:48;2.10;99.90
16263;DHT22;8239;48.594;8.598;2024-03-08T09:29:17;2.10;99.90
16263;DHT22;8239;48.594;8.598;2024-03-08T09:31:44;2.30;99.90
16263;DHT22;8239;48.594;8.598;2024-03-08T09:34:11;2.30;99.90
16263;DHT22;8239;48.594;8.598;2024-03-08T09:36:38;2.10;99.90
16263;DHT22;8239;48.594;8.598;2024-03-08T09:39:07;2.20;99.90
16263;DHT22;8239;48.594;8.598;2024-03-08T09:41:34;2.40;99.90
16263;DHT22;8239;48.594;8.598;2024-03-08T09:44:01;2.00;99.90
16263;DHT22;8239;48.594;8.598;2024-03-08T09:46:31;1.80;99.90
16263;DHT22;8239;48.594;8.598;2024-03-08T09:48:58;1.90;99.90
16263;DHT22;8239;48.594;8.598;2024-03-08T09:51:28;1.90;99.90
16263;DHT22;8239;48.594;8.598;2024-03-08T09:53:56;1.90;99.90
16263;DHT22;8239;48.594;8.598;2024-03-08T09:56:25;1.90;99.90
16263;DHT22;8239;48.594;8.598;2024-03-08T09:58:53;2.00;99.90
16263;DHT22;8239;48.594;8.598;2024-03-08T10:01:47;2.10;99.90
16263;DHT22;8239;48.594;8.598;2024-03-08T10:04:14;2.00;99.90
16263;DHT22;8239;48.594;8.598;2024-03-08T10:06:42;2.00;99.90
16263;DHT22;8239;48.594;8.598;2024-03-08T10:09:09;2.00;99.90
16263;DHT22;8239;48.594;8.598;2024-03-08T10:11:38;2.10;99.90
16263;DHT22;8239;48.594;8.598;2024-03-08T10:14:09;2.10;99.90
16263;DHT22;8239;48.594;8.598;2024-03-08T10:16:36;2.10;99.90
16263;DHT22;8239;48.594;8.598;2024-03-08T10:19:06;2.10;99.90
16263;DHT22;8239;48.594;8.598;2024-03-08T10:21:35;2.00;99.90
16263;DHT22;8239;48.594;8.598;2024-03-08T10:24:02;2.10;99.90
16263;DHT22;8239;48.594;8.598;2024-03-08T10:26:30;2.10;99.90
16263;DHT22;8239;48.594;8.598;2024-03-08T10:28:57;2.10;99.90
16263;DHT22;8239;48.594;8.598;2024-03-08T10:31:24;2.20;99.90
16263;DHT22;8239;48.594;8.598;2024-03-08T10:33:51;2.20;99.90
16263;DHT22;8239;48.594;8.598;2024-03-08T10:36:20;2.20;99.90
16263;DHT22;8239;48.594;8.598;2024-03-08T10:38:47;2.20;99.90
16263;DHT22;8239;48.594;8.598;2024-03-08T10:41:19;2.40;99.90
16263;DHT22;8239;48.594;8.598;2024-03-08T10:44:09;2.70;99.90
16263;DHT22;8239;48.594;8.598;2024-03-08T10:46:44;2.90;99.90
16263;DHT22;8239;48.594;8.598;2024-03-08T10:49:17;2.90;99.90
16263;DHT22;8239;48.594;8.598;2024-03-08T10:51:46;2.90;99.90
16263;DHT22;8239;48.594;8.598;2024-03-08T10:54:19;2.80;99.90
16263;DHT22;8239;48.594;8.598;2024-03-08T10:56:48;2.80;99.90
16263;DHT22;8239;48.594;8.598;2024-03-08T10:59:17;2.80;99.90
16263;DHT22;8239;48.594;8.598;2024-03-08T11:01:44;2.90;99.90
16263;DHT22;8239;48.594;8.598;2024-03-08T11:04:11;2.70;99.90
16263;DHT22;8239;48.594;8.598;2024-03-08T11:06:43;2.80;99.90
16263;DHT22;8239;48.594;8.598;2024-03-08T11:12:26;3.00;99.90
16263;DHT22;8239;48.594;8.598;2024-03-08T11:15:00;2.90;99.90
16263;DHT22;8239;48.594;8.598;2024-03-08T11:17:46;2.90;99.90
16263;DHT22;8239;48.594;8.598;2024-03-08T11:20:15;2.90;99.90
16263;DHT22;8239;48.594;8.598;2024-03-08T11:22:42;3.00;99.90
16263;DHT22;8239;48.594;8.598;2024-03-08T11:25:30;3.10;99.90
16263;DHT22;8239;48.594;8.598;2024-03-08T11:28:09;3.20;99.90
16263;DHT22;8239;48.594;8.598;2024-03-08T11:30:45;3.10;99.90
16263;DHT22;8239;48.594;8.598;2024-03-08T11:33:14;3.20;99.90
16263;DHT22;8239;48.594;8.598;2024-03-08T11:35:42;3.40;99.90
16263;DHT22;8239;48.594;8.598;2024-03-08T11:38:12;3.70;99.90
16263;DHT22;8239;48.594;8.598;2024-03-08T11:40:42;4.20;99.90
16263;DHT22;8239;48.594;8.598;2024-03-08T11:43:11;4.40;99.90
16263;DHT22;8239;48.594;8.598;2024-03-08T11:45:39;4.70;99.90
16263;DHT22;8239;48.594;8.598;2024-03-08T11:48:07;4.70;99.90
16263;DHT22;8239;48.594;8.598;2024-03-08T11:50:34;4.40;99.90
16263;DHT22;8239;48.594;8.598;2024-03-08T11:53:02;4.40;99.90
16263;DHT22;8239;48.594;8.598;2024-03-08T11:55:30;4.80;99.90
16263;DHT22;8239;48.594;8.598;2024-03-08T11:58:01;5.00;99.90
16263;DHT22;8239;48.594;8.598;2024-03-08T12:00:34;5.20;99.00
16263;DHT22;8239;48.594;8.598;2024-03-08T12:03:05;5.20;99.70
16263;DHT22;8239;48.594;8.598;2024-03-08T12:05:35;5.40;98.30
16263;DHT22;8239;48.594;8.598;2024-03-08T12:08:07;5.10;96.90
16263;DHT22;8239;48.594;8.598;2024-03-08T12:10:38;4.70;97.40
16263;DHT22;8239;48.594;8.598;2024-03-08T12:13:07;4.70;99.10
16263;DHT22;8239;48.594;8.598;2024-03-08T12:15:40;4.90;98.60
16263;DHT22;8239;48.594;8.598;2024-03-08T12:18:12;5.10;98.30
16263;DHT22;8239;48.594;8.598;2024-03-08T12:20:40;5.30;97.50
16263;DHT22;8239;48.594;8.598;2024-03-08T12:23:14;5.20;96.40
16263;DHT22;8239;48.594;8.598;2024-03-08T12:25:42;5.00;97.10
16263;DHT22;8239;48.594;8.598;2024-03-08T12:28:10;4.70;97.20
16263;DHT22;8239;48.594;8.598;2024-03-08T12:30:46;4.70;97.70
16263;DHT22;8239;48.594;8.598;2024-03-08T12:33:15;4.90;97.30
16263;DHT22;8239;48.594;8.598;2024-03-08T12:35:50;5.10;97.30
16263;DHT22;8239;48.594;8.598;2024-03-08T12:38:20;5.60;96.80
16263;DHT22;8239;48.594;8.598;2024-03-08T12:40:51;5.70;95.20
16263;DHT22;8239;48.594;8.598;2024-03-08T12:43:22;5.80;94.40
16263;DHT22;8239;48.594;8.598;2024-03-08T12:45:51;5.90;94.50
16263;DHT22;8239;48.594;8.598;2024-03-08T12:48:19;5.90;93.80
16263;DHT22;8239;48.594;8.598;2024-03-08T12:50:47;5.90;93.50
16263;DHT22;8239;48.594;8.598;2024-03-08T12:53:16;6.20;93.40
16263;DHT22;8239;48.594;8.598;2024-03-08T12:55:44;7.00;92.10
16263;DHT22;8239;48.594;8.598;2024-03-08T12:58:11;7.80;90.90
16263;DHT22;8239;48.594;8.598;2024-03-08T13:00:38;9.30;87.30
16263;DHT22;8239;48.594;8.598;2024-03-08T13:03:10;11.30;78.00
16263;DHT22;8239;48.594;8.598;2024-03-08T13:05:37;13.40;67.50
16263;DHT22;8239;48.594;8.598;2024-03-08T13:08:05;15.40;57.80
16263;DHT22;8239;48.594;8.598;2024-03-08T13:10:38;16.60;53.40
16263;DHT22;8239;48.594;8.598;2024-03-08T13:13:05;18.00;50.00
16263;DHT22;8239;48.594;8.598;2024-03-08T13:15:32;19.50;47.60
16263;DHT22;8239;48.594;8.598;2024-03-08T13:17:59;20.80;46.10
16263;DHT22;8239;48.594;8.598;2024-03-08T13:20:28;21.70;42.50
16263;DHT22;8239;48.594;8.598;2024-03-08T13:22:55;22.30;41.10
16263;DHT22;8239;48.594;8.598;2024-03-08T13:25:24;22.90;40.00
16263;DHT22;8239;48.594;8.598;2024-03-08T13:27:52;22.80;37.00
16263;DHT22;8239;48.594;8.598;2024-03-08T13:30:19;22.10;38.20
16263;DHT22;8239;48.594;8.598;2024-03-08T13:32:51;21.30;39.20
16263;DHT22;8239;48.594;8.598;2024-03-08T13:35:19;21.50;39.80
16263;DHT22;8239;48.594;8.598;2024-03-08T13:37:51;22.00;38.40
16263;DHT22;8239;48.594;8.598;2024-03-08T13:40:19;22.70;38.30
16263;DHT22;8239;48.594;8.598;2024-03-08T13:42:47;23.40;36.70
16263;DHT22;8239;48.594;8.598;2024-03-08T13:45:15;22.90;36.00
16263;DHT22;8239;48.594;8.598;2024-03-08T13:47:43;22.80;37.20
16263;DHT22;8239;48.594;8.598;2024-03-08T13:50:12;23.30;36.50
16263;DHT22;8239;48.594;8.598;2024-03-08T13:52:42;23.70;35.60
16263;DHT22;8239;48.594;8.598;2024-03-08T13:55:11;24.20;35.40
16263;DHT22;8239;48.594;8.598;2024-03-08T13:57:40;24.30;34.40
16263;DHT22;8239;48.594;8.598;2024-03-08T14:00:08;23.90;35.00
16263;DHT22;8239;48.594;8.598;2024-03-08T14:02:35;23.00;35.20
16263;DHT22;8239;48.594;8.598;2024-03-08T14:05:03;22.60;36.50
16263;DHT22;8239;48.594;8.598;2024-03-08T14:07:30;22.20;36.40
16263;DHT22;8239;48.594;8.598;2024-03-08T14:09:57;22.60;36.80
16263;DHT22;8239;48.594;8.598;2024-03-08T14:12:26;23.10;36.90
16263;DHT22;8239;48.594;8.598;2024-03-08T14:14:53;23.50;35.30
16263;DHT22;8239;48.594;8.598;2024-03-08T14:17:20;23.00;35.00
16263;DHT22;8239;48.594;8.598;2024-03-08T14:19:48;23.00;35.40
16263;DHT22;8239;48.594;8.598;2024-03-08T14:22:16;22.80;36.20
16263;DHT22;8239;48.594;8.598;2024-03-08T14:24:43;22.70;36.00
16263;DHT22;8239;48.594;8.598;2024-03-08T14:27:10;22.60;35.80
16263;DHT22;8239;48.594;8.598;2024-03-08T14:29:39;21.50;36.70
16263;DHT22;8239;48.594;8.598;2024-03-08T14:32:06;20.80;38.40
16263;DHT22;8239;48.594;8.598;2024-03-08T14:34:34;20.00;39.70
16263;DHT22;8239;48.594;8.598;2024-03-08T14:37:01;20.20;40.20
16263;DHT22;8239;48.594;8.598;2024-03-08T14:39:31;20.20;39.60
16263;DHT22;8239;48.594;8.598;2024-03-08T14:41:59;20.90;40.60
16263;DHT22;8239;48.594;8.598;2024-03-08T14:44:27;22.20;39.00
16263;DHT22;8239;48.594;8.598;2024-03-08T14:46:57;21.30;37.30
16263;DHT22;8239;48.594;8.598;2024-03-08T14:49:24;20.70;38.90
16263;DHT22;8239;48.594;8.598;2024-03-08T14:51:52;19.80;39.50
16263;DHT22;8239;48.594;8.598;2024-03-08T14:54:19;19.40;40.70
16263;DHT22;8239;48.594;8.598;2024-03-08T14:56:48;18.70;41.20
16263;DHT22;8239;48.594;8.598;2024-03-08T14:59:16;18.50;42.30
16263;DHT22;8239;48.594;8.598;2024-03-08T15:01:48;18.90;42.70
16263;DHT22;8239;48.594;8.598;2024-03-08T15:04:16;19.00;42.10
16263;DHT22;8239;48.594;8.598;2024-03-08T15:06:44;18.20;41.70
16263;DHT22;8239;48.594;8.598;2024-03-08T15:09:13;17.80;43.70
16263;DHT22;8239;48.594;8.598;2024-03-08T15:11:45;18.00;42.50
16263;DHT22;8239;48.594;8.598;2024-03-08T15:14:12;17.40;43.60
16263;DHT22;8239;48.594;8.598;2024-03-08T15:16:39;17.10;44.40
16263;DHT22;8239;48.594;8.598;2024-03-08T15:19:08;16.80;44.50
16263;DHT22;8239;48.594;8.598;2024-03-08T15:21:39;16.30;44.70
16263;DHT22;8239;48.594;8.598;2024-03-08T15:24:06;16.20;46.30
16263;DHT22;8239;48.594;8.598;2024-03-08T15:26:41;16.00;46.00
16263;DHT22;8239;48.594;8.598;2024-03-08T15:29:09;15.80;46.40
16263;DHT22;8239;48.594;8.598;2024-03-08T15:31:38;15.60;46.40
16263;DHT22;8239;48.594;8.598;2024-03-08T15:34:06;15.60;46.50
16263;DHT22;8239;48.594;8.598;2024-03-08T15:36:34;15.50;46.40
16263;DHT22;8239;48.594;8.598;2024-03-08T15:39:02;15.30;46.60
16263;DHT22;8239;48.594;8.598;2024-03-08T15:41:35;15.20;46.70
16263;DHT22;8239;48.594;8.598;2024-03-08T15:44:02;15.50;46.70
16263;DHT22;8239;48.594;8.598;2024-03-08T15:46:29;15.50;46.50
16263;DHT22;8239;48.594;8.598;2024-03-08T15:48:58;15.30;46.10
16263;DHT22;8239;48.594;8.598;2024-03-08T15:51:25;15.20;47.00
16263;DHT22;8239;48.594;8.598;2024-03-08T15:53:52;15.30;46.80
16263;DHT22;8239;48.594;8.598;2024-03-08T15:56:22;15.70;46.90
16263;DHT22;8239;48.594;8.598;2024-03-08T15:58:49;15.40;46.00
16263;DHT22;8239;48.594;8.598;2024-03-08T16:01:17;15.20;46.50
16263;DHT22;8239;48.594;8.598;2024-03-08T16:03:45;15.20;47.40